createdAt,value
2018-04-15T00:00:52.975Z,11.27
2018-04-15T00:01:52.963Z,11.21
2018-04-15T00:02:52.937Z,11.11
2018-04-15T00:03:52.928Z,11.24
2018-04-15T00:04:52.937Z,11.17
2018-04-15T00:05:52.899Z,11.19
2018-04-15T00:06:52.885Z,11.13
2018-04-15T00:07:52.873Z,11.17
2018-04-15T00:08:52.856Z,11.14
2018-04-15T00:09:52.839Z,11.07
2018-04-15T00:10:52.823Z,11.17
2018-04-15T00:11:52.806Z,11.14
2018-04-15T00:12:52.797Z,11.10
2018-04-15T00:13:52.775Z,11.07
2018-04-15T00:14:52.780Z,11.07
2018-04-15T00:15:52.754Z,10.92
2018-04-15T00:16:52.736Z,10.96
2018-04-15T00:17:52.726Z,10.99
2018-04-15T00:18:52.710Z,10.91
2018-04-15T00:19:52.681Z,11.06
2018-04-15T00:20:52.684Z,11.01
2018-04-15T00:21:52.655Z,11.03
2018-04-15T00:22:52.646Z,10.88
2018-04-15T00:23:52.632Z,10.86
2018-04-15T00:24:52.608Z,10.94
2018-04-15T00:25:52.624Z,10.84
2018-04-15T00:26:52.580Z,10.83
2018-04-15T00:27:52.574Z,10.83
2018-04-15T00:28:52.576Z,10.80
2018-04-15T00:29:52.534Z,10.76
2018-04-15T00:30:52.535Z,10.80
2018-04-15T00:31:52.509Z,10.74
2018-04-15T00:32:52.502Z,10.78
2018-04-15T00:33:52.477Z,10.70
2018-04-15T00:34:52.461Z,10.76
2018-04-15T00:35:52.442Z,10.83
2018-04-15T00:36:52.445Z,10.78
2018-04-15T00:37:52.423Z,10.73
2018-04-15T00:38:52.393Z,10.80
2018-04-15T00:39:52.384Z,10.81
2018-04-15T00:40:52.378Z,10.83
2018-04-15T00:41:52.364Z,10.78
2018-04-15T00:42:52.342Z,10.78
2018-04-15T00:43:52.339Z,10.81
2018-04-15T00:44:52.306Z,10.88
2018-04-15T00:45:52.322Z,10.81
2018-04-15T00:46:52.274Z,10.73
2018-04-15T00:47:52.274Z,10.78
2018-04-15T00:48:52.241Z,10.78
2018-04-15T00:49:52.232Z,10.76
2018-04-15T00:50:52.222Z,10.77
2018-04-15T00:51:52.200Z,10.76
2018-04-15T00:52:52.181Z,10.76
2018-04-15T00:53:52.167Z,10.81
2018-04-15T00:54:52.154Z,10.71
2018-04-15T00:55:52.139Z,10.70
2018-04-15T00:56:52.135Z,10.63
2018-04-15T00:57:52.107Z,10.65
2018-04-15T00:58:52.088Z,10.65
2018-04-15T00:59:52.085Z,10.59
2018-04-15T01:00:52.066Z,10.70
2018-04-15T01:01:52.046Z,10.68
2018-04-15T01:02:52.031Z,10.66
2018-04-15T01:03:52.019Z,10.65
2018-04-15T01:04:52.019Z,10.60
2018-04-15T01:05:52.025Z,10.63
2018-04-15T01:06:51.990Z,10.70
2018-04-15T01:07:51.956Z,10.70
2018-04-15T01:08:51.959Z,10.80
2018-04-15T01:09:51.925Z,10.81
2018-04-15T01:10:51.902Z,10.78
2018-04-15T01:11:51.899Z,10.77
2018-04-15T01:12:51.909Z,10.83
2018-04-15T01:13:51.870Z,10.81
2018-04-15T01:14:51.861Z,10.74
2018-04-15T01:15:51.841Z,10.83
2018-04-15T01:16:51.813Z,10.86
2018-04-15T01:17:51.799Z,10.86
2018-04-15T01:18:51.791Z,10.78
2018-04-15T01:19:51.818Z,10.81
2018-04-15T01:20:51.767Z,10.86
2018-04-15T01:21:51.750Z,10.86
2018-04-15T01:22:51.718Z,10.80
2018-04-15T01:23:51.711Z,10.84
2018-04-15T01:24:51.698Z,10.84
2018-04-15T01:25:51.685Z,10.83
2018-04-15T01:26:51.685Z,10.83
2018-04-15T01:27:51.646Z,10.81
2018-04-15T01:28:51.630Z,10.81
2018-04-15T01:29:51.633Z,10.83
2018-04-15T01:30:51.605Z,10.83
2018-04-15T01:31:51.616Z,10.84
2018-04-15T01:32:51.570Z,10.80
2018-04-15T01:33:51.558Z,10.83
2018-04-15T01:34:51.561Z,10.88
2018-04-15T01:35:51.525Z,10.83
2018-04-15T01:36:51.521Z,10.80
2018-04-15T01:37:51.506Z,10.84
2018-04-15T01:38:51.472Z,10.95
2018-04-15T01:39:51.468Z,10.84
2018-04-15T01:40:51.465Z,10.84
2018-04-15T01:41:51.436Z,10.96
2018-04-15T01:42:51.417Z,10.92
2018-04-15T01:43:51.430Z,10.98
2018-04-15T01:44:51.391Z,10.94
2018-04-15T01:45:51.363Z,10.94
2018-04-15T01:46:51.366Z,10.94
2018-04-15T01:47:51.362Z,10.95
2018-04-15T01:48:51.333Z,10.86
2018-04-15T01:49:51.311Z,10.86
2018-04-15T01:50:51.313Z,10.86
2018-04-15T01:51:51.276Z,10.83
2018-04-15T01:52:51.257Z,10.84
2018-04-15T01:53:51.276Z,10.84
2018-04-15T01:54:51.244Z,10.86
2018-04-15T01:55:51.240Z,10.81
2018-04-15T01:56:51.201Z,10.81
2018-04-15T01:57:51.195Z,10.77
2018-04-15T01:58:51.176Z,10.78
2018-04-15T01:59:51.148Z,10.74
2018-04-15T02:00:51.135Z,10.73
2018-04-15T02:01:51.128Z,10.66
2018-04-15T02:02:51.120Z,10.70
2018-04-15T02:03:51.101Z,10.71
2018-04-15T02:04:51.088Z,10.66
2018-04-15T02:05:51.065Z,10.68
2018-04-15T02:06:51.052Z,10.68
2018-04-15T02:07:51.042Z,10.59
2018-04-15T02:08:51.015Z,10.58
2018-04-15T02:09:51.022Z,10.56
2018-04-15T02:10:50.989Z,10.70
2018-04-15T02:11:50.993Z,10.65
2018-04-15T02:12:50.956Z,10.63
2018-04-15T02:13:50.949Z,10.62
2018-04-15T02:14:50.937Z,10.52
2018-04-15T02:15:50.924Z,10.53
2018-04-15T02:16:50.898Z,10.59
2018-04-15T02:17:50.883Z,10.59
2018-04-15T02:18:50.873Z,10.46
2018-04-15T02:19:50.844Z,10.53
2018-04-15T02:20:50.831Z,10.47
2018-04-15T02:21:50.819Z,10.46
2018-04-15T02:22:50.799Z,10.51
2018-04-15T02:23:50.781Z,10.44
2018-04-15T02:24:50.777Z,10.46
2018-04-15T02:25:50.773Z,10.46
2018-04-15T02:26:50.776Z,10.52
2018-04-15T02:27:50.734Z,10.55
2018-04-15T02:28:50.709Z,10.47
2018-04-15T02:29:50.706Z,10.51
2018-04-15T02:30:50.670Z,10.52
2018-04-15T02:31:50.660Z,10.46
2018-04-15T02:32:50.635Z,10.47
2018-04-15T02:33:50.649Z,10.53
2018-04-15T02:34:50.617Z,10.55
2018-04-15T02:35:50.600Z,10.53
2018-04-15T02:36:50.581Z,10.46
2018-04-15T02:37:50.573Z,10.63
2018-04-15T02:38:50.552Z,10.55
2018-04-15T02:39:50.540Z,10.56
2018-04-15T02:40:50.520Z,10.47
2018-04-15T02:41:50.505Z,10.47
2018-04-15T02:42:50.496Z,10.51
2018-04-15T02:43:50.473Z,10.52
2018-04-15T02:44:50.463Z,10.55
2018-04-15T02:45:50.450Z,10.44
2018-04-15T02:46:50.432Z,10.55
2018-04-15T02:47:50.429Z,10.56
2018-04-15T02:48:50.394Z,10.58
2018-04-15T02:49:50.384Z,10.56
2018-04-15T02:50:50.371Z,10.55
2018-04-15T02:51:50.350Z,10.47
2018-04-15T02:52:50.326Z,10.46
2018-04-15T02:53:50.317Z,10.47
2018-04-15T02:54:50.306Z,10.51
2018-04-15T02:55:50.297Z,10.47
2018-04-15T02:56:50.281Z,10.47
2018-04-15T02:57:50.258Z,10.44
2018-04-15T02:58:50.242Z,10.52
2018-04-15T02:59:50.226Z,10.51
2018-04-15T03:00:50.210Z,10.59
2018-04-15T03:01:50.223Z,10.42
2018-04-15T03:02:50.195Z,10.47
2018-04-15T03:03:50.208Z,10.51
2018-04-15T03:04:50.143Z,10.62
2018-04-15T03:05:50.137Z,10.53
2018-04-15T03:06:50.111Z,10.40
2018-04-15T03:07:50.095Z,10.40
2018-04-15T03:08:50.085Z,10.36
2018-04-15T03:09:50.072Z,10.42
2018-04-15T03:10:50.090Z,10.42
2018-04-15T03:11:50.037Z,10.47
2018-04-15T03:12:50.014Z,10.43
2018-04-15T03:13:49.998Z,10.40
2018-04-15T03:14:49.994Z,10.34
2018-04-15T03:15:49.979Z,10.37
2018-04-15T03:16:49.956Z,10.36
2018-04-15T03:17:49.941Z,10.36
2018-04-15T03:18:49.946Z,10.33
2018-04-15T03:19:49.909Z,10.36
2018-04-15T03:20:49.898Z,10.36
2018-04-15T03:21:49.876Z,10.37
2018-04-15T03:22:49.895Z,10.43
2018-04-15T03:23:49.853Z,10.32
2018-04-15T03:24:49.831Z,10.42
2018-04-15T03:25:49.809Z,10.24
2018-04-15T03:26:49.812Z,10.30
2018-04-15T03:27:49.786Z,10.24
2018-04-15T03:28:49.757Z,10.40
2018-04-15T03:29:49.781Z,10.40
2018-04-15T03:30:49.735Z,10.43
2018-04-15T03:31:49.719Z,10.46
2018-04-15T03:32:49.713Z,10.55
2018-04-15T03:33:49.716Z,10.55
2018-04-15T03:34:49.683Z,10.53
2018-04-15T03:35:49.659Z,10.51
2018-04-15T03:36:49.639Z,10.42
2018-04-15T03:37:49.626Z,10.55
2018-04-15T03:38:49.606Z,10.53
2018-04-15T03:39:49.591Z,10.39
2018-04-15T03:40:49.578Z,10.53
2018-04-15T03:41:49.567Z,10.46
2018-04-15T03:42:49.545Z,10.63
2018-04-15T03:43:49.610Z,10.56
2018-04-15T03:44:49.525Z,10.53
2018-04-15T03:45:49.497Z,10.56
2018-04-15T03:46:49.484Z,10.56
2018-04-15T03:47:49.471Z,10.53
2018-04-15T03:48:49.452Z,10.53
2018-04-15T03:49:49.435Z,10.56
2018-04-15T03:50:49.429Z,10.53
2018-04-15T03:51:49.404Z,10.47
2018-04-15T03:52:49.406Z,10.58
2018-04-15T03:53:49.388Z,10.55
2018-04-15T03:54:49.388Z,10.56
2018-04-15T03:55:49.363Z,10.62
2018-04-15T03:56:49.328Z,10.56
2018-04-15T03:57:49.312Z,10.55
2018-04-15T03:58:49.295Z,10.55
2018-04-15T03:59:49.281Z,10.56
2018-04-15T04:00:49.261Z,10.56
2018-04-15T04:01:49.251Z,10.51
2018-04-15T04:02:49.236Z,10.55
2018-04-15T04:03:49.216Z,10.43
2018-04-15T04:04:49.220Z,10.46
2018-04-15T04:05:49.191Z,10.34
2018-04-15T04:06:49.166Z,10.34
2018-04-15T04:07:49.156Z,10.34
2018-04-15T04:08:49.141Z,10.40
2018-04-15T04:09:49.123Z,10.60
2018-04-15T04:10:49.114Z,10.62
2018-04-15T04:11:49.089Z,10.55
2018-04-15T04:12:49.070Z,10.52
2018-04-15T04:13:49.070Z,10.46
2018-04-15T04:14:49.079Z,10.52
2018-04-15T04:15:49.034Z,10.46
2018-04-15T04:16:49.022Z,10.47
2018-04-15T04:17:49.024Z,10.44
2018-04-15T04:18:48.992Z,10.55
2018-04-15T04:19:48.964Z,10.47
2018-04-15T04:20:48.950Z,10.56
2018-04-15T04:21:48.948Z,10.55
2018-04-15T04:22:48.933Z,10.56
2018-04-15T04:23:48.929Z,10.63
2018-04-15T04:24:48.898Z,10.56
2018-04-15T04:25:48.875Z,10.53
2018-04-15T04:26:48.862Z,10.55
2018-04-15T04:27:48.840Z,10.52
2018-04-15T04:28:48.834Z,10.47
2018-04-15T04:29:48.817Z,10.52
2018-04-15T04:30:48.822Z,10.60
2018-04-15T04:31:48.795Z,10.51
2018-04-15T04:32:48.769Z,10.53
2018-04-15T04:33:48.760Z,10.58
2018-04-15T04:34:48.750Z,10.58
2018-04-15T04:35:48.711Z,10.60
2018-04-15T04:36:48.702Z,10.56
2018-04-15T04:37:48.712Z,10.60
2018-04-15T04:38:48.686Z,10.55
2018-04-15T04:39:48.673Z,10.55
2018-04-15T04:40:48.654Z,10.63
2018-04-15T04:41:48.640Z,10.66
2018-04-15T04:42:48.642Z,10.66
2018-04-15T04:43:48.601Z,10.66
2018-04-15T04:44:48.596Z,10.71
2018-04-15T04:45:48.572Z,10.60
2018-04-15T04:46:48.557Z,10.66
2018-04-15T04:47:48.530Z,10.60
2018-04-15T04:48:48.511Z,10.68
2018-04-15T04:49:48.502Z,10.70
2018-04-15T04:50:48.489Z,10.62
2018-04-15T04:51:48.495Z,10.70
2018-04-15T04:52:48.476Z,10.66
2018-04-15T04:53:48.431Z,10.66
2018-04-15T04:54:48.447Z,10.63
2018-04-15T04:55:48.412Z,10.71
2018-04-15T04:56:48.392Z,10.68
2018-04-15T04:57:48.381Z,10.68
2018-04-15T04:58:48.371Z,10.70
2018-04-15T04:59:48.346Z,10.78
2018-04-15T05:00:48.329Z,10.80
2018-04-15T05:01:48.317Z,10.78
2018-04-15T05:02:48.314Z,10.78
2018-04-15T05:03:48.286Z,10.83
2018-04-15T05:04:48.259Z,10.77
2018-04-15T05:05:48.249Z,10.78
2018-04-15T05:06:48.234Z,10.74
2018-04-15T05:07:48.230Z,10.81
2018-04-15T05:08:48.205Z,10.78
2018-04-15T05:09:48.195Z,10.83
2018-04-15T05:10:48.170Z,10.78
2018-04-15T05:11:48.189Z,10.83
2018-04-15T05:12:48.140Z,10.81
2018-04-15T05:13:48.120Z,10.76
2018-04-15T05:14:48.146Z,10.80
2018-04-15T05:15:48.101Z,10.78
2018-04-15T05:16:48.089Z,10.83
2018-04-15T05:17:48.076Z,10.78
2018-04-15T05:18:48.057Z,10.81
2018-04-15T05:19:48.041Z,10.81
2018-04-15T05:20:48.015Z,10.83
2018-04-15T05:21:48.002Z,10.95
2018-04-15T05:22:47.983Z,10.86
2018-04-15T05:23:47.968Z,10.92
2018-04-15T05:24:47.971Z,10.88
2018-04-15T05:25:47.946Z,10.91
2018-04-15T05:26:47.926Z,10.88
2018-04-15T05:27:47.926Z,10.91
2018-04-15T05:28:47.895Z,10.92
2018-04-15T05:29:47.881Z,10.94
2018-04-15T05:30:47.866Z,11.03
2018-04-15T05:31:47.853Z,11.01
2018-04-15T05:32:47.843Z,10.92
2018-04-15T05:33:47.820Z,11.10
2018-04-15T05:34:47.831Z,11.10
2018-04-15T05:35:47.805Z,11.11
2018-04-15T05:36:47.776Z,11.16
2018-04-15T05:37:47.769Z,11.10
2018-04-15T05:38:47.756Z,11.10
2018-04-15T05:39:47.724Z,11.10
2018-04-15T05:40:47.722Z,11.10
2018-04-15T05:41:47.705Z,11.24
2018-04-15T05:42:47.682Z,11.21
2018-04-15T05:43:47.670Z,11.24
2018-04-15T05:44:47.650Z,11.28
2018-04-15T05:45:47.631Z,11.19
2018-04-15T05:46:47.622Z,11.10
2018-04-15T05:47:47.618Z,11.19
2018-04-15T05:48:47.596Z,11.16
2018-04-15T05:49:47.577Z,11.21
2018-04-15T05:50:47.577Z,11.25
2018-04-15T05:51:47.551Z,11.25
2018-04-15T05:52:47.541Z,11.32
2018-04-15T05:53:47.528Z,11.25
2018-04-15T05:54:47.502Z,11.25
2018-04-15T05:55:47.495Z,11.35
2018-04-15T05:56:47.463Z,11.36
2018-04-15T05:57:47.454Z,11.47
2018-04-15T05:58:47.457Z,11.36
2018-04-15T05:59:47.438Z,11.47
2018-04-15T06:00:47.409Z,11.54
2018-04-15T06:01:47.425Z,11.61
2018-04-15T06:02:47.377Z,11.59
2018-04-15T06:03:47.370Z,11.61
2018-04-15T06:04:47.396Z,11.68
2018-04-15T06:05:47.335Z,11.72
2018-04-15T06:06:47.323Z,11.67
2018-04-15T06:07:47.323Z,11.53
2018-04-15T06:08:47.297Z,11.57
2018-04-15T06:09:47.274Z,11.62
2018-04-15T06:10:47.266Z,11.70
2018-04-15T06:11:47.250Z,11.68
2018-04-15T06:12:47.237Z,11.70
2018-04-15T06:13:47.221Z,11.74
2018-04-15T06:14:47.224Z,11.61
2018-04-15T06:15:47.192Z,11.62
2018-04-15T06:16:47.173Z,11.59
2018-04-15T06:17:47.174Z,11.62
2018-04-15T06:18:47.147Z,11.75
2018-04-15T06:19:47.142Z,11.72
2018-04-15T06:20:47.124Z,11.77
2018-04-15T06:21:47.101Z,11.82
2018-04-15T06:22:47.105Z,11.83
2018-04-15T06:23:47.080Z,11.80
2018-04-15T06:24:47.057Z,11.78
2018-04-15T06:25:47.048Z,11.68
2018-04-15T06:26:47.038Z,11.80
2018-04-15T06:27:47.030Z,11.68
2018-04-15T06:28:47.006Z,11.78
2018-04-15T06:29:46.987Z,11.72
2018-04-15T06:30:46.980Z,11.65
2018-04-15T06:31:46.960Z,11.77
2018-04-15T06:32:46.961Z,11.86
2018-04-15T06:33:46.940Z,11.86
2018-04-15T06:34:46.928Z,11.93
2018-04-15T06:35:46.909Z,11.96
2018-04-15T06:36:46.981Z,11.89
2018-04-15T06:37:46.870Z,12.06
2018-04-15T06:38:46.861Z,12.02
2018-04-15T06:39:46.848Z,12.02
2018-04-15T06:40:46.831Z,12.01
2018-04-15T06:41:46.823Z,12.02
2018-04-15T06:42:46.800Z,12.09
2018-04-15T06:43:46.790Z,12.04
2018-04-15T06:44:46.781Z,12.01
2018-04-15T06:45:46.777Z,11.99
2018-04-15T06:46:46.759Z,12.09
2018-04-15T06:47:46.734Z,12.02
2018-04-15T06:48:46.718Z,12.15
2018-04-15T06:49:46.707Z,12.16
2018-04-15T06:50:46.696Z,12.16
2018-04-15T06:51:46.681Z,12.20
2018-04-15T06:52:46.667Z,12.24
2018-04-15T06:53:46.660Z,12.31
2018-04-15T06:54:46.663Z,12.26
2018-04-15T06:55:46.660Z,12.27
2018-04-15T06:56:46.622Z,12.30
2018-04-15T06:57:46.596Z,12.27
2018-04-15T06:58:46.590Z,12.31
2018-04-15T06:59:46.589Z,12.27
2018-04-15T07:00:46.558Z,12.42
2018-04-15T07:01:46.556Z,12.44
2018-04-15T07:02:46.526Z,12.41
2018-04-15T07:03:46.532Z,12.38
2018-04-15T07:04:46.520Z,12.52
2018-04-15T07:05:46.481Z,12.57
2018-04-15T07:06:46.475Z,12.56
2018-04-15T07:07:46.459Z,12.63
2018-04-15T07:08:46.442Z,12.62
2018-04-15T07:09:46.427Z,12.71
2018-04-15T07:10:46.433Z,12.71
2018-04-15T07:11:46.414Z,12.85
2018-04-15T07:12:46.391Z,12.95
2018-04-15T07:13:46.379Z,12.97
2018-04-15T07:14:46.376Z,12.93
2018-04-15T07:15:46.373Z,12.85
2018-04-15T07:16:46.344Z,12.92
2018-04-15T07:17:46.328Z,12.97
2018-04-15T07:18:46.354Z,12.99
2018-04-15T07:19:46.300Z,13.03
2018-04-15T07:20:46.293Z,13.12
2018-04-15T07:21:46.299Z,13.20
2018-04-15T07:22:46.264Z,13.15
2018-04-15T07:23:46.246Z,13.11
2018-04-15T07:24:46.239Z,13.22
2018-04-15T07:25:46.220Z,13.18
2018-04-15T07:26:46.213Z,13.20
2018-04-15T07:27:46.197Z,13.12
2018-04-15T07:28:46.175Z,13.27
2018-04-15T07:29:46.191Z,13.25
2018-04-15T07:30:46.167Z,13.22
2018-04-15T07:31:46.141Z,13.29
2018-04-15T07:32:46.134Z,13.22
2018-04-15T07:33:46.181Z,13.12
2018-04-15T07:34:46.115Z,13.24
2018-04-15T07:35:46.099Z,13.36
2018-04-15T07:36:46.083Z,13.41
2018-04-15T07:37:46.082Z,13.49
2018-04-15T07:38:46.051Z,13.51
2018-04-15T07:39:46.040Z,13.56
2018-04-15T07:40:46.026Z,13.54
2018-04-15T07:41:46.009Z,13.59
2018-04-15T07:42:46.013Z,13.55
2018-04-15T07:43:45.996Z,13.52
2018-04-15T07:44:45.977Z,13.61
2018-04-15T07:45:45.969Z,13.69
2018-04-15T07:46:45.952Z,13.69
2018-04-15T07:47:45.958Z,13.81
2018-04-15T07:48:45.930Z,13.81
2018-04-15T07:49:45.917Z,13.92
2018-04-15T07:50:45.901Z,13.95
2018-04-15T07:51:45.886Z,13.95
2018-04-15T07:52:45.875Z,13.99
2018-04-15T07:53:45.886Z,13.96
2018-04-15T07:54:45.854Z,13.92
2018-04-15T07:55:45.847Z,13.96
2018-04-15T07:56:45.841Z,14.01
2018-04-15T07:57:45.818Z,14.01
2018-04-15T07:58:45.815Z,13.95
2018-04-15T07:59:45.799Z,13.95
2018-04-15T08:00:45.780Z,13.87
2018-04-15T08:01:45.768Z,14.07
2018-04-15T08:02:45.757Z,14.09
2018-04-15T08:03:45.759Z,14.16
2018-04-15T08:04:45.741Z,14.17
2018-04-15T08:05:45.728Z,14.19
2018-04-15T08:06:45.715Z,14.04
2018-04-15T08:07:45.772Z,14.17
2018-04-15T08:08:45.689Z,14.19
2018-04-15T08:09:45.692Z,14.14
2018-04-15T08:10:45.667Z,14.17
2018-04-15T08:11:45.670Z,14.19
2018-04-15T08:12:45.676Z,14.17
2018-04-15T08:13:45.632Z,14.24
2018-04-15T08:14:45.610Z,14.20
2018-04-15T08:15:45.597Z,14.24
2018-04-15T08:16:45.597Z,14.34
2018-04-15T08:17:45.574Z,14.39
2018-04-15T08:18:45.566Z,14.53
2018-04-15T08:19:45.552Z,14.52
2018-04-15T08:20:45.543Z,14.62
2018-04-15T08:21:45.562Z,14.60
2018-04-15T08:22:45.521Z,14.53
2018-04-15T08:23:45.511Z,14.50
2018-04-15T08:24:45.495Z,14.54
2018-04-15T08:25:45.488Z,14.60
2018-04-15T08:26:45.469Z,14.54
2018-04-15T08:27:45.460Z,14.62
2018-04-15T08:28:45.447Z,14.68
2018-04-15T08:29:45.424Z,14.84
2018-04-15T08:30:45.418Z,14.87
2018-04-15T08:31:45.408Z,14.90
2018-04-15T08:32:45.421Z,14.94
2018-04-15T08:33:45.392Z,15.01
2018-04-15T08:34:45.393Z,15.05
2018-04-15T08:35:45.412Z,15.15
2018-04-15T08:36:45.353Z,15.19
2018-04-15T08:37:45.366Z,15.28
2018-04-15T08:38:45.331Z,15.35
2018-04-15T08:39:45.331Z,15.39
2018-04-15T08:40:45.315Z,15.46
2018-04-15T08:41:45.319Z,15.45
2018-04-15T08:42:45.296Z,15.54
2018-04-15T08:43:45.273Z,15.70
2018-04-15T08:44:45.267Z,15.79
2018-04-15T08:45:45.254Z,15.96
2018-04-15T08:46:45.277Z,16.12
2018-04-15T08:47:45.252Z,16.15
2018-04-15T08:48:45.242Z,16.25
2018-04-15T08:49:45.219Z,16.44
2018-04-15T08:50:45.213Z,16.45
2018-04-15T08:51:45.197Z,16.48
2018-04-15T08:52:45.197Z,16.52
2018-04-15T08:53:45.196Z,16.55
2018-04-15T08:54:45.193Z,16.55
2018-04-15T08:55:45.163Z,16.85
2018-04-15T08:56:45.177Z,17.04
2018-04-15T08:57:45.154Z,17.30
2018-04-15T08:58:45.144Z,17.57
2018-04-15T08:59:45.144Z,17.89
2018-04-15T09:00:45.141Z,17.71
2018-04-15T09:01:45.125Z,17.88
2018-04-15T09:02:45.147Z,17.88
2018-04-15T09:03:45.115Z,17.95
2018-04-15T09:04:45.125Z,17.70
2018-04-15T09:05:45.103Z,17.53
2018-04-15T09:06:45.099Z,17.10
2018-04-15T09:07:45.106Z,16.96
2018-04-15T09:08:45.096Z,17.03
2018-04-15T09:09:45.119Z,17.15
2018-04-15T09:10:45.087Z,17.15
2018-04-15T09:11:45.074Z,17.54
2018-04-15T09:12:45.064Z,17.62
2018-04-15T09:13:45.070Z,18.27
2018-04-15T09:14:45.063Z,18.59
2018-04-15T09:15:45.059Z,18.42
2018-04-15T09:16:45.045Z,18.61
2018-04-15T09:17:45.048Z,18.83
2018-04-15T09:18:45.056Z,18.74
2018-04-15T09:19:45.048Z,18.52
2018-04-15T09:20:45.054Z,18.70
2018-04-15T09:21:45.035Z,18.82
2018-04-15T09:22:45.035Z,18.94
2018-04-15T09:23:45.027Z,18.74
2018-04-15T09:24:45.024Z,18.59
2018-04-15T09:25:45.031Z,18.80
2018-04-15T09:26:45.029Z,19.11
2018-04-15T09:27:45.016Z,19.50
2018-04-15T09:28:45.035Z,19.79
2018-04-15T09:29:45.010Z,20.03
2018-04-15T09:30:45.019Z,20.09
2018-04-15T09:31:45.002Z,19.70
2018-04-15T09:32:45.009Z,19.50
2018-04-15T09:33:44.996Z,19.36
2018-04-15T09:34:45.003Z,19.20
2018-04-15T09:35:44.993Z,18.70
2018-04-15T09:36:44.986Z,18.42
2018-04-15T09:37:44.993Z,17.76
2018-04-15T09:38:44.983Z,17.64
2018-04-15T09:39:44.980Z,17.81
2018-04-15T09:40:44.977Z,17.79
2018-04-15T09:41:44.976Z,18.00
2018-04-15T09:42:44.967Z,18.28
2018-04-15T09:43:44.977Z,18.59
2018-04-15T09:44:44.970Z,18.74
2018-04-15T09:45:44.960Z,18.72
2018-04-15T09:46:44.960Z,18.57
2018-04-15T09:47:44.953Z,18.94
2018-04-15T09:48:44.957Z,19.29
2018-04-15T09:49:44.963Z,19.33
2018-04-15T09:50:44.967Z,19.08
2018-04-15T09:51:44.944Z,18.84
2018-04-15T09:52:44.957Z,18.49
2018-04-15T09:53:44.948Z,18.79
2018-04-15T09:54:44.944Z,18.95
2018-04-15T09:55:44.934Z,18.98
2018-04-15T09:56:44.932Z,19.06
2018-04-15T09:57:44.941Z,19.20
2018-04-15T09:58:44.925Z,18.99
2018-04-15T09:59:44.935Z,19.18
2018-04-15T10:00:44.927Z,19.32
2018-04-15T10:01:44.918Z,19.50
2018-04-15T10:02:44.911Z,19.84
2018-04-15T10:03:44.924Z,19.86
2018-04-15T10:04:44.925Z,19.75
2018-04-15T10:05:44.917Z,19.68
2018-04-15T10:06:44.904Z,19.21
2018-04-15T10:07:44.901Z,18.97
2018-04-15T10:08:44.904Z,19.08
2018-04-15T10:09:44.897Z,19.20
2018-04-15T10:10:44.915Z,19.33
2018-04-15T10:11:44.895Z,19.51
2018-04-15T10:12:44.885Z,19.63
2018-04-15T10:13:44.889Z,19.48
2018-04-15T10:14:44.892Z,19.73
2018-04-15T10:15:44.873Z,19.94
2018-04-15T10:16:44.898Z,20.05
2018-04-15T10:17:44.876Z,20.00
2018-04-15T10:18:44.877Z,20.03
2018-04-15T10:19:44.870Z,20.05
2018-04-15T10:20:44.890Z,20.16
2018-04-15T10:21:44.866Z,20.30
2018-04-15T10:22:44.864Z,20.49
2018-04-15T10:23:44.870Z,20.41
2018-04-15T10:24:44.861Z,20.43
2018-04-15T10:25:44.865Z,20.54
2018-04-15T10:26:44.857Z,20.58
2018-04-15T10:27:44.851Z,20.83
2018-04-15T10:28:44.864Z,20.95
2018-04-15T10:29:44.849Z,21.06
2018-04-15T10:30:44.845Z,21.38
2018-04-15T10:31:44.858Z,21.19
2018-04-15T10:32:44.850Z,21.21
2018-04-15T10:33:44.844Z,21.41
2018-04-15T10:34:44.851Z,21.63
2018-04-15T10:35:44.852Z,21.74
2018-04-15T10:36:44.839Z,22.01
2018-04-15T10:37:44.845Z,21.69
2018-04-15T10:38:44.908Z,21.59
2018-04-15T10:39:44.852Z,21.21
2018-04-15T10:40:44.846Z,20.84
2018-04-15T10:41:44.847Z,20.34
2018-04-15T10:42:44.854Z,20.20
2018-04-15T10:43:44.878Z,20.33
2018-04-15T10:44:44.852Z,20.71
2018-04-15T10:45:44.844Z,21.01
2018-04-15T10:46:44.846Z,21.08
2018-04-15T10:47:44.866Z,21.26
2018-04-15T10:48:44.843Z,21.63
2018-04-15T10:49:44.847Z,22.02
2018-04-15T10:50:44.851Z,22.46
2018-04-15T10:51:44.853Z,22.44
2018-04-15T10:52:44.850Z,22.60
2018-04-15T10:53:44.854Z,22.72
2018-04-15T10:54:44.908Z,22.87
2018-04-15T10:55:44.840Z,23.11
2018-04-15T10:56:44.853Z,23.22
2018-04-15T10:57:44.848Z,23.19
2018-04-15T10:58:44.860Z,23.49
2018-04-15T10:59:44.853Z,23.34
2018-04-15T11:00:44.852Z,23.32
2018-04-15T11:01:44.850Z,22.87
2018-04-15T11:02:44.872Z,22.35
2018-04-15T11:03:44.869Z,22.16
2018-04-15T11:04:44.859Z,22.14
2018-04-15T11:05:44.863Z,22.49
2018-04-15T11:06:44.861Z,22.52
2018-04-15T11:07:44.876Z,22.59
2018-04-15T11:08:44.901Z,22.09
2018-04-15T11:09:44.869Z,21.60
2018-04-15T11:10:44.885Z,21.60
2018-04-15T11:11:44.879Z,21.72
2018-04-15T11:12:44.880Z,22.02
2018-04-15T11:13:44.901Z,22.53
2018-04-15T11:14:44.899Z,22.93
2018-04-15T11:15:44.886Z,23.14
2018-04-15T11:16:44.911Z,23.46
2018-04-15T11:17:44.889Z,23.24
2018-04-15T11:18:44.897Z,23.05
2018-04-15T11:19:44.891Z,23.31
2018-04-15T11:20:44.908Z,23.08
2018-04-15T11:21:44.908Z,22.75
2018-04-15T11:22:44.909Z,22.77
2018-04-15T11:23:44.920Z,22.93
2018-04-15T11:24:44.930Z,23.07
2018-04-15T11:25:44.927Z,23.19
2018-04-15T11:26:44.922Z,23.34
2018-04-15T11:27:44.917Z,23.58
2018-04-15T11:28:44.953Z,23.60
2018-04-15T11:29:44.923Z,23.64
2018-04-15T11:30:44.925Z,23.71
2018-04-15T11:31:44.933Z,23.67
2018-04-15T11:32:44.946Z,23.60
2018-04-15T11:33:44.950Z,23.90
2018-04-15T11:34:44.953Z,23.80
2018-04-15T11:35:44.968Z,23.75
2018-04-15T11:36:44.995Z,23.50
2018-04-15T11:37:44.985Z,23.34
2018-04-15T11:38:44.950Z,23.55
2018-04-15T11:39:44.963Z,23.80
2018-04-15T11:40:44.953Z,24.10
2018-04-15T11:41:44.978Z,24.10
2018-04-15T11:42:44.959Z,24.19
2018-04-15T11:43:44.964Z,24.34
2018-04-15T11:44:44.969Z,24.35
2018-04-15T11:45:44.969Z,24.19
2018-04-15T11:46:44.971Z,24.44
2018-04-15T11:47:44.990Z,24.37
2018-04-15T11:48:45.005Z,24.24
2018-04-15T11:49:45.001Z,23.87
2018-04-15T11:50:44.994Z,23.07
2018-04-15T11:51:45.058Z,22.41
2018-04-15T11:52:44.987Z,22.46
2018-04-15T11:53:44.991Z,22.60
2018-04-15T11:54:44.994Z,22.78
2018-04-15T11:55:45.007Z,22.96
2018-04-15T11:56:44.991Z,22.83
2018-04-15T11:57:45.004Z,22.67
2018-04-15T11:58:45.003Z,22.62
2018-04-15T11:59:45.007Z,22.60
2018-04-15T12:00:45.039Z,22.93
2018-04-15T12:01:45.010Z,22.53
2018-04-15T12:02:45.026Z,22.20
2018-04-15T12:03:45.010Z,22.54
2018-04-15T12:04:45.019Z,22.77
2018-04-15T12:05:45.017Z,22.92
2018-04-15T12:06:45.042Z,23.20
2018-04-15T12:07:45.020Z,23.52
2018-04-15T12:08:45.024Z,23.46
2018-04-15T12:09:45.016Z,23.47
2018-04-15T12:10:45.026Z,23.32
2018-04-15T12:11:45.041Z,23.57
2018-04-15T12:12:45.032Z,23.71
2018-04-15T12:13:45.033Z,23.80
2018-04-15T12:14:45.029Z,23.95
2018-04-15T12:15:45.030Z,23.98
2018-04-15T12:16:45.096Z,24.19
2018-04-15T12:17:45.029Z,24.07
2018-04-15T12:18:45.030Z,23.80
2018-04-15T12:19:45.043Z,23.76
2018-04-15T12:20:45.054Z,23.53
2018-04-15T12:21:45.049Z,23.50
2018-04-15T12:22:45.049Z,23.70
2018-04-15T12:23:45.069Z,24.10
2018-04-15T12:24:45.056Z,24.24
2018-04-15T12:25:45.069Z,24.23
2018-04-15T12:26:45.066Z,24.37
2018-04-15T12:27:45.072Z,24.53
2018-04-15T12:28:45.073Z,24.71
2018-04-15T12:29:45.069Z,24.68
2018-04-15T12:30:45.077Z,24.76
2018-04-15T12:31:45.079Z,24.83
2018-04-15T12:32:45.097Z,24.77
2018-04-15T12:33:45.161Z,25.01
2018-04-15T12:34:45.089Z,25.00
2018-04-15T12:35:45.196Z,25.07
2018-04-15T12:36:45.089Z,25.38
2018-04-15T12:37:45.180Z,25.31
2018-04-15T12:38:45.120Z,24.71
2018-04-15T12:39:45.112Z,24.76
2018-04-15T12:40:45.114Z,24.91
2018-04-15T12:41:45.139Z,24.97
2018-04-15T12:42:45.137Z,24.76
2018-04-15T12:43:45.149Z,24.90
2018-04-15T12:44:45.160Z,24.82
2018-04-15T12:45:45.166Z,24.31
2018-04-15T12:46:45.136Z,24.31
2018-04-15T12:47:45.156Z,24.54
2018-04-15T12:48:45.153Z,24.67
2018-04-15T12:49:45.169Z,24.73
2018-04-15T12:50:45.164Z,24.82
2018-04-15T12:51:45.199Z,24.85
2018-04-15T12:52:45.175Z,24.71